Airfield :
LOGIN :

Register | Disclaimer

   EN    FR    IT 

 










Legend :    VFR   Marginal VFR   IFR   Intensive IFR   Very Intensive IFR
Visi :
Ceiling :
>= 8 km
>= 3000ft
5 to 8 km
1000 to 3000 ft
1500m to 5 km
500 to 1000 ft
800 to 1500m
200 to 500 ft
< 800m
< 200 ft
Symbols :   Thunderstorms  Fog  Heavy snow  Heavy precipitations  Wind > 20 kt
SIGMETs :     Misc.  Thunderstorms  Icing  Turbulence  Mountain Waves  Volcanic Ashes






- Airport Elevation : 1504 ft
- IATA code : PNA


LEPP - Noain Pamplona

CURRENT METAR :
  • 072030Z 16004KT 100V250 9999 BKN035 12/11 Q1025

EXPIRED METARs :
  • 072000Z VRB02KT 9999 BKN035 13/11 Q1025
  • 071930Z VRB02KT 9999 BKN045 13/10 Q1025
  • 071900Z 16005KT 110V210 9999 BKN045 13/10 Q1025
  • 071830Z 19006KT 160V220 9999 FEW017 BKN030 13/10 Q1024
  • 071800Z 20005KT 140V250 9999 FEW017 BKN030 13/11 Q1024

TAF TAF LEPP
Valid from the 07 at 21:00 until the 08 at 21:00 UTC


072000Z 0721/0821 VRB05KT 9999 BKN025 TX18/0815Z TN09/0801Z
PROB40
TEMPO 0721/0808 3000 BR BKN010
TEMPO 0808/0818 17010KT



MET'MAP, your aeronautical weather chart ! - Copyright ORBIFLY December 2007 - Disclaimer

ORBIFLY MET'MAP TEAM :

Programming & Development : Alexandra Zaïnal
Concept & original design : Baudouin d'Aumeries
Assistance for programming : Marc-Olivier Méhu
Technical & hardware support : Manuel Goepfert

Contact : metmap@orbifly.com




SOURCES & CREDITS :

   NOAA